sensor_id;sensor_type;location;lat;lon;timestamp;pressure;altitude;pressure_sealevel;temperature;humidity
15314;BME280;7757;52.626;4.746;2023-02-15T00:01:16;102794.44;;;15.99;63.49
15314;BME280;7757;52.626;4.746;2023-02-15T00:04:06;102793.44;;;16.00;63.80
15314;BME280;7757;52.626;4.746;2023-02-15T00:06:52;102779.44;;;15.96;63.13
15314;BME280;7757;52.626;4.746;2023-02-15T00:09:37;102769.00;;;15.93;63.56
15314;BME280;7757;52.626;4.746;2023-02-15T00:12:23;102762.25;;;15.89;63.01
15314;BME280;7757;52.626;4.746;2023-02-15T00:15:15;102756.00;;;15.89;63.49
15314;BME280;7757;52.626;4.746;2023-02-15T00:18:02;102759.06;;;15.94;63.30
15314;BME280;7757;52.626;4.746;2023-02-15T00:20:47;102758.22;;;15.93;63.38
15314;BME280;7757;52.626;4.746;2023-02-15T00:23:33;102753.31;;;15.89;63.40
15314;BME280;7757;52.626;4.746;2023-02-15T00:26:19;102749.44;;;15.91;63.82
15314;BME280;7757;52.626;4.746;2023-02-15T00:29:04;102754.66;;;15.93;63.71
15314;BME280;7757;52.626;4.746;2023-02-15T00:31:52;102757.22;;;15.86;63.69
15314;BME280;7757;52.626;4.746;2023-02-15T00:34:37;102759.56;;;15.89;63.29
15314;BME280;7757;52.626;4.746;2023-02-15T00:37:28;102756.00;;;15.89;63.46
15314;BME280;7757;52.626;4.746;2023-02-15T00:40:14;102748.28;;;15.86;63.44
15314;BME280;7757;52.626;4.746;2023-02-15T00:42:59;102734.78;;;15.86;63.02
15314;BME280;7757;52.626;4.746;2023-02-15T00:45:48;102733.78;;;15.87;62.99
15314;BME280;7757;52.626;4.746;2023-02-15T00:48:35;102730.75;;;15.82;63.16
15314;BME280;7757;52.626;4.746;2023-02-15T00:51:21;102731.97;;;15.79;63.55
15314;BME280;7757;52.626;4.746;2023-02-15T00:54:08;102740.53;;;15.83;63.07
15314;BME280;7757;52.626;4.746;2023-02-15T00:56:54;102738.34;;;15.78;63.12
15314;BME280;7757;52.626;4.746;2023-02-15T00:59:41;102733.31;;;15.75;63.56
15314;BME280;7757;52.626;4.746;2023-02-15T01:02:27;102732.47;;;15.75;63.36
15314;BME280;7757;52.626;4.746;2023-02-15T01:05:19;102733.47;;;15.74;63.69
15314;BME280;7757;52.626;4.746;2023-02-15T01:08:05;102724.38;;;15.75;62.92
15314;BME280;7757;52.626;4.746;2023-02-15T01:10:51;102725.22;;;15.75;63.02
15314;BME280;7757;52.626;4.746;2023-02-15T01:13:37;102732.31;;;15.76;63.39
15314;BME280;7757;52.626;4.746;2023-02-15T01:16:27;102727.59;;;15.70;63.12
15314;BME280;7757;52.626;4.746;2023-02-15T01:19:15;102719.66;;;15.69;63.77
15314;BME280;7757;52.626;4.746;2023-02-15T01:22:02;102722.03;;;15.72;63.38
15314;BME280;7757;52.626;4.746;2023-02-15T01:24:48;102710.22;;;15.73;63.22
15314;BME280;7757;52.626;4.746;2023-02-15T01:27:34;102708.38;;;15.65;63.85
15314;BME280;7757;52.626;4.746;2023-02-15T01:30:24;102703.47;;;15.69;63.28
15314;BME280;7757;52.626;4.746;2023-02-15T01:33:13;102708.38;;;15.65;63.20
15314;BME280;7757;52.626;4.746;2023-02-15T01:36:02;102704.53;;;15.68;63.19
15314;BME280;7757;52.626;4.746;2023-02-15T01:38:50;102703.31;;;15.62;63.13
15314;BME280;7757;52.626;4.746;2023-02-15T01:41:36;102704.88;;;15.65;63.11
15314;BME280;7757;52.626;4.746;2023-02-15T01:44:48;102707.56;;;15.65;63.38
15314;BME280;7757;52.626;4.746;2023-02-15T01:47:36;102703.66;;;15.59;63.24
15314;BME280;7757;52.626;4.746;2023-02-15T01:50:28;102701.66;;;15.61;62.90
15314;BME280;7757;52.626;4.746;2023-02-15T01:53:17;102704.19;;;15.62;63.60
15314;BME280;7757;52.626;4.746;2023-02-15T01:56:08;102704.53;;;15.59;63.23
15314;BME280;7757;52.626;4.746;2023-02-15T01:58:58;102703.00;;;15.57;63.96
15314;BME280;7757;52.626;4.746;2023-02-15T02:01:46;102690.88;;;15.53;63.46
15314;BME280;7757;52.626;4.746;2023-02-15T02:04:39;102696.97;;;15.55;63.38
15314;BME280;7757;52.626;4.746;2023-02-15T02:07:28;102688.03;;;15.54;63.55
15314;BME280;7757;52.626;4.746;2023-02-15T02:10:20;102687.53;;;15.51;63.40
15314;BME280;7757;52.626;4.746;2023-02-15T02:13:08;102682.13;;;15.51;63.11
15314;BME280;7757;52.626;4.746;2023-02-15T02:15:58;102673.88;;;15.52;63.88
15314;BME280;7757;52.626;4.746;2023-02-15T02:18:55;102668.66;;;15.51;63.84
15314;BME280;7757;52.626;4.746;2023-02-15T02:22:15;102664.63;;;15.47;63.18
15314;BME280;7757;52.626;4.746;2023-02-15T02:25:35;102668.84;;;15.49;63.04
15314;BME280;7757;52.626;4.746;2023-02-15T02:28:31;102663.75;;;15.46;63.44
15314;BME280;7757;52.626;4.746;2023-02-15T02:31:43;102657.34;;;15.47;62.84
15314;BME280;7757;52.626;4.746;2023-02-15T02:34:33;102649.59;;;15.44;63.49
15314;BME280;7757;52.626;4.746;2023-02-15T02:37:30;102650.97;;;15.40;63.25
15314;BME280;7757;52.626;4.746;2023-02-15T02:40:28;102653.47;;;15.42;63.67
15314;BME280;7757;52.626;4.746;2023-02-15T02:43:20;102649.78;;;15.43;63.37
15314;BME280;7757;52.626;4.746;2023-02-15T02:46:10;102645.56;;;15.40;63.32
15314;BME280;7757;52.626;4.746;2023-02-15T02:49:00;102634.63;;;15.34;63.29
15314;BME280;7757;52.626;4.746;2023-02-15T02:51:58;102632.44;;;15.37;63.26
15314;BME280;7757;52.626;4.746;2023-02-15T02:54:45;102624.16;;;15.39;62.51
15314;BME280;7757;52.626;4.746;2023-02-15T02:57:32;102618.09;;;15.37;62.76
15314;BME280;7757;52.626;4.746;2023-02-15T03:00:23;102607.19;;;15.30;63.15
15314;BME280;7757;52.626;4.746;2023-02-15T03:03:14;102609.88;;;15.30;62.90
15314;BME280;7757;52.626;4.746;2023-02-15T03:06:04;102608.53;;;15.34;63.47
15314;BME280;7757;52.626;4.746;2023-02-15T03:08:58;102616.94;;;15.31;63.16
15314;BME280;7757;52.626;4.746;2023-02-15T03:11:49;102607.66;;;15.34;62.61
15314;BME280;7757;52.626;4.746;2023-02-15T03:14:36;102593.72;;;15.22;63.56
15314;BME280;7757;52.626;4.746;2023-02-15T03:17:29;102598.59;;;15.27;63.44
15314;BME280;7757;52.626;4.746;2023-02-15T03:20:20;102605.00;;;15.26;62.99
15314;BME280;7757;52.626;4.746;2023-02-15T03:23:13;102596.44;;;15.22;62.98
15314;BME280;7757;52.626;4.746;2023-02-15T03:26:02;102597.09;;;15.24;63.32
15314;BME280;7757;52.626;4.746;2023-02-15T03:28:50;102598.94;;;15.24;63.58
15314;BME280;7757;52.626;4.746;2023-02-15T03:31:40;102591.69;;;15.24;63.19
15314;BME280;7757;52.626;4.746;2023-02-15T03:34:26;102581.59;;;15.18;63.46
15314;BME280;7757;52.626;4.746;2023-02-15T03:37:18;102588.34;;;15.22;63.25
15314;BME280;7757;52.626;4.746;2023-02-15T03:40:16;102591.38;;;15.19;63.00
15314;BME280;7757;52.626;4.746;2023-02-15T03:43:27;102576.41;;;15.17;63.22
15314;BME280;7757;52.626;4.746;2023-02-15T03:46:23;102581.59;;;15.18;63.36
15314;BME280;7757;52.626;4.746;2023-02-15T03:49:15;102574.91;;;15.14;63.52
15314;BME280;7757;52.626;4.746;2023-02-15T03:52:07;102573.00;;;15.15;62.87
15314;BME280;7757;52.626;4.746;2023-02-15T03:54:54;102566.97;;;15.13;62.44
15314;BME280;7757;52.626;4.746;2023-02-15T03:57:40;102572.19;;;15.14;62.77
15314;BME280;7757;52.626;4.746;2023-02-15T04:00:50;102554.88;;;15.08;62.91
15314;BME280;7757;52.626;4.746;2023-02-15T04:03:56;102555.53;;;15.11;62.57
15314;BME280;7757;52.626;4.746;2023-02-15T04:06:43;102551.34;;;15.08;62.30
15314;BME280;7757;52.626;4.746;2023-02-15T04:09:28;102560.25;;;15.08;63.36
15314;BME280;7757;52.626;4.746;2023-02-15T04:12:31;102545.59;;;15.03;63.11
15314;BME280;7757;52.626;4.746;2023-02-15T04:15:18;102553.19;;;15.07;62.95
15314;BME280;7757;52.626;4.746;2023-02-15T04:18:23;102542.56;;;15.06;63.29
15314;BME280;7757;52.626;4.746;2023-02-15T04:21:27;102531.31;;;15.02;63.41
15314;BME280;7757;52.626;4.746;2023-02-15T04:24:31;102537.53;;;15.03;63.37
15314;BME280;7757;52.626;4.746;2023-02-15T04:27:36;102528.63;;;15.02;62.51
15314;BME280;7757;52.626;4.746;2023-02-15T04:30:23;102534.16;;;15.01;63.11
15314;BME280;7757;52.626;4.746;2023-02-15T04:33:10;102531.81;;;14.98;63.22
15314;BME280;7757;52.626;4.746;2023-02-15T04:35:57;102538.72;;;15.00;63.28
15314;BME280;7757;52.626;4.746;2023-02-15T04:38:44;102542.59;;;14.98;62.08
15314;BME280;7757;52.626;4.746;2023-02-15T04:41:32;102525.28;;;14.92;62.30
15314;BME280;7757;52.626;4.746;2023-02-15T04:44:19;102530.13;;;14.97;62.95
15314;BME280;7757;52.626;4.746;2023-02-15T04:47:06;102526.78;;;14.95;62.12
15314;BME280;7757;52.626;4.746;2023-02-15T04:49:51;102526.28;;;14.91;63.30
15314;BME280;7757;52.626;4.746;2023-02-15T04:52:40;102527.31;;;14.90;62.86
15314;BME280;7757;52.626;4.746;2023-02-15T04:55:27;102531.50;;;14.93;63.17
15314;BME280;7757;52.626;4.746;2023-02-15T04:58:13;102532.34;;;14.93;62.38
15314;BME280;7757;52.626;4.746;2023-02-15T05:00:59;102528.13;;;14.91;62.34
15314;BME280;7757;52.626;4.746;2023-02-15T05:03:47;102525.81;;;14.88;62.09
15314;BME280;7757;52.626;4.746;2023-02-15T05:06:33;102533.50;;;14.91;62.65
15314;BME280;7757;52.626;4.746;2023-02-15T05:09:20;102519.56;;;14.87;62.25
15314;BME280;7757;52.626;4.746;2023-02-15T05:12:06;102522.94;;;14.89;62.67
15314;BME280;7757;52.626;4.746;2023-02-15T05:14:52;102515.69;;;14.90;61.93
15314;BME280;7757;52.626;4.746;2023-02-15T05:17:38;102509.78;;;14.86;62.71
15314;BME280;7757;52.626;4.746;2023-02-15T05:20:24;102507.44;;;14.83;62.76
15314;BME280;7757;52.626;4.746;2023-02-15T05:23:10;102505.28;;;14.79;63.05
15314;BME280;7757;52.626;4.746;2023-02-15T05:26:01;102511.16;;;14.82;62.31
15314;BME280;7757;52.626;4.746;2023-02-15T05:29:04;102509.63;;;14.80;62.50
15314;BME280;7757;52.626;4.746;2023-02-15T05:31:52;102503.25;;;14.81;62.63
15314;BME280;7757;52.626;4.746;2023-02-15T05:34:38;102507.78;;;14.80;61.82
15314;BME280;7757;52.626;4.746;2023-02-15T05:37:24;102508.78;;;14.79;61.81
15314;BME280;7757;52.626;4.746;2023-02-15T05:40:12;102496.88;;;14.74;62.65
15314;BME280;7757;52.626;4.746;2023-02-15T05:43:02;102502.44;;;14.72;62.67
15314;BME280;7757;52.626;4.746;2023-02-15T05:45:48;102508.97;;;14.78;61.77
15314;BME280;7757;52.626;4.746;2023-02-15T05:48:37;102501.25;;;14.75;62.34
15314;BME280;7757;52.626;4.746;2023-02-15T05:51:24;102486.97;;;14.66;61.72
15314;BME280;7757;52.626;4.746;2023-02-15T05:54:09;102495.34;;;14.71;62.94
15314;BME280;7757;52.626;4.746;2023-02-15T05:56:57;102497.91;;;14.73;62.61
15314;BME280;7757;52.626;4.746;2023-02-15T05:59:44;102493.50;;;14.72;62.71
15314;BME280;7757;52.626;4.746;2023-02-15T06:02:30;102493.19;;;14.67;62.94
15314;BME280;7757;52.626;4.746;2023-02-15T06:05:19;102483.44;;;14.66;62.03
15314;BME280;7757;52.626;4.746;2023-02-15T06:08:05;102475.00;;;14.69;62.11
15314;BME280;7757;52.626;4.746;2023-02-15T06:10:51;102470.97;;;14.65;62.60
15314;BME280;7757;52.626;4.746;2023-02-15T06:13:37;102478.03;;;14.66;61.53
15314;BME280;7757;52.626;4.746;2023-02-15T06:16:25;102470.81;;;14.66;62.74
15314;BME280;7757;52.626;4.746;2023-02-15T06:19:11;102478.88;;;14.66;62.36
15314;BME280;7757;52.626;4.746;2023-02-15T06:21:59;102482.94;;;14.62;61.75
15314;BME280;7757;52.626;4.746;2023-02-15T06:24:44;102474.19;;;14.60;61.79
15314;BME280;7757;52.626;4.746;2023-02-15T06:27:31;102483.13;;;14.61;62.29
15314;BME280;7757;52.626;4.746;2023-02-15T06:30:19;102460.91;;;14.50;62.57
15314;BME280;7757;52.626;4.746;2023-02-15T06:33:17;102479.38;;;14.62;61.78
15314;BME280;7757;52.626;4.746;2023-02-15T06:36:03;102475.66;;;14.71;61.46
15314;BME280;7757;52.626;4.746;2023-02-15T06:38:50;102472.81;;;14.72;61.90
15314;BME280;7757;52.626;4.746;2023-02-15T06:41:36;102478.00;;;14.82;62.01
15314;BME280;7757;52.626;4.746;2023-02-15T06:44:25;102473.31;;;14.68;62.60
15314;BME280;7757;52.626;4.746;2023-02-15T06:47:11;102471.47;;;14.68;62.22
15314;BME280;7757;52.626;4.746;2023-02-15T06:50:00;102470.28;;;14.71;62.28
15314;BME280;7757;52.626;4.746;2023-02-15T06:52:46;102465.22;;;14.68;62.72
15314;BME280;7757;52.626;4.746;2023-02-15T06:55:32;102469.28;;;14.72;62.27
15314;BME280;7757;52.626;4.746;2023-02-15T06:58:18;102481.56;;;14.74;61.80
15314;BME280;7757;52.626;4.746;2023-02-15T07:01:05;102470.63;;;14.68;62.86
15314;BME280;7757;52.626;4.746;2023-02-15T07:03:54;102479.50;;;14.76;62.13
15314;BME280;7757;52.626;4.746;2023-02-15T07:06:42;102481.84;;;14.79;62.21
15314;BME280;7757;52.626;4.746;2023-02-15T07:09:28;102471.31;;;14.70;62.39
15314;BME280;7757;52.626;4.746;2023-02-15T07:12:14;102465.91;;;14.70;62.24
15314;BME280;7757;52.626;4.746;2023-02-15T07:15:21;102479.34;;;14.78;61.60
15314;BME280;7757;52.626;4.746;2023-02-15T07:18:08;102468.94;;;14.75;61.66
15314;BME280;7757;52.626;4.746;2023-02-15T07:20:54;102465.38;;;14.74;61.88
15314;BME280;7757;52.626;4.746;2023-02-15T07:23:42;102472.97;;;14.79;62.32
15314;BME280;7757;52.626;4.746;2023-02-15T07:26:28;102463.34;;;14.76;62.22
15314;BME280;7757;52.626;4.746;2023-02-15T07:29:13;102461.16;;;14.80;62.26
15314;BME280;7757;52.626;4.746;2023-02-15T07:32:00;102454.47;;;14.76;62.26
15314;BME280;7757;52.626;4.746;2023-02-15T07:34:46;102449.72;;;14.78;62.49
15314;BME280;7757;52.626;4.746;2023-02-15T07:37:35;102447.38;;;14.75;62.29
15314;BME280;7757;52.626;4.746;2023-02-15T07:40:25;102445.00;;;14.80;61.91
15314;BME280;7757;52.626;4.746;2023-02-15T07:43:12;102446.50;;;14.82;61.73
15314;BME280;7757;52.626;4.746;2023-02-15T07:45:59;102441.81;;;14.84;62.30
15314;BME280;7757;52.626;4.746;2023-02-15T07:48:46;102427.34;;;14.77;62.23
15314;BME280;7757;52.626;4.746;2023-02-15T07:51:34;102440.75;;;14.93;61.79
15314;BME280;7757;52.626;4.746;2023-02-15T07:54:20;102425.28;;;14.87;61.43
15314;BME280;7757;52.626;4.746;2023-02-15T07:57:08;102436.66;;;14.97;61.24
15314;BME280;7757;52.626;4.746;2023-02-15T07:59:56;102438.53;;;14.97;62.19
15314;BME280;7757;52.626;4.746;2023-02-15T08:02:47;102419.66;;;14.97;61.81
15314;BME280;7757;52.626;4.746;2023-02-15T08:05:57;102428.94;;;15.02;61.51
15314;BME280;7757;52.626;4.746;2023-02-15T08:08:44;102414.28;;;14.97;61.58
15314;BME280;7757;52.626;4.746;2023-02-15T08:11:31;102419.81;;;15.03;61.04
15314;BME280;7757;52.626;4.746;2023-02-15T08:14:36;102424.34;;;15.11;60.93
15314;BME280;7757;52.626;4.746;2023-02-15T08:17:22;102413.72;;;15.09;61.58
15314;BME280;7757;52.626;4.746;2023-02-15T08:20:09;102411.31;;;15.15;61.76
15314;BME280;7757;52.626;4.746;2023-02-15T08:22:57;102411.66;;;15.20;60.84
15314;BME280;7757;52.626;4.746;2023-02-15T08:25:42;102415.00;;;15.22;61.59
15314;BME280;7757;52.626;4.746;2023-02-15T08:28:28;102409.13;;;15.18;61.34
15314;BME280;7757;52.626;4.746;2023-02-15T08:31:20;102424.56;;;15.24;61.04
15314;BME280;7757;52.626;4.746;2023-02-15T08:34:07;102419.50;;;15.29;61.63
15314;BME280;7757;52.626;4.746;2023-02-15T08:36:57;102415.25;;;15.35;61.01
15314;BME280;7757;52.626;4.746;2023-02-15T08:39:47;102413.56;;;15.34;61.62
15314;BME280;7757;52.626;4.746;2023-02-15T08:42:34;102412.56;;;15.35;60.82
15314;BME280;7757;52.626;4.746;2023-02-15T08:45:21;102413.88;;;15.39;60.61
15314;BME280;7757;52.626;4.746;2023-02-15T08:48:11;102416.88;;;15.44;61.47
15314;BME280;7757;52.626;4.746;2023-02-15T08:50:57;102416.19;;;15.42;60.48
15314;BME280;7757;52.626;4.746;2023-02-15T08:53:45;102416.38;;;15.48;61.10
15314;BME280;7757;52.626;4.746;2023-02-15T08:56:35;102419.56;;;15.52;61.08
15314;BME280;7757;52.626;4.746;2023-02-15T08:59:23;102423.25;;;15.51;61.29
15314;BME280;7757;52.626;4.746;2023-02-15T09:02:11;102412.16;;;15.46;60.79
15314;BME280;7757;52.626;4.746;2023-02-15T09:04:59;102419.34;;;15.53;60.37
15314;BME280;7757;52.626;4.746;2023-02-15T09:07:44;102421.03;;;15.54;60.14
15314;BME280;7757;52.626;4.746;2023-02-15T09:10:31;102409.91;;;15.57;60.72
15314;BME280;7757;52.626;4.746;2023-02-15T09:13:17;102414.72;;;15.62;59.97
15314;BME280;7757;52.626;4.746;2023-02-15T09:16:08;102402.22;;;15.69;60.52
15314;BME280;7757;52.626;4.746;2023-02-15T09:18:54;102400.38;;;15.70;60.08
15314;BME280;7757;52.626;4.746;2023-02-15T09:21:42;102394.78;;;15.71;60.37
15314;BME280;7757;52.626;4.746;2023-02-15T09:24:31;102391.34;;;15.77;59.91
15314;BME280;7757;52.626;4.746;2023-02-15T09:27:20;102391.81;;;15.81;60.14
15314;BME280;7757;52.626;4.746;2023-02-15T09:30:07;102392.09;;;15.86;60.40
15314;BME280;7757;52.626;4.746;2023-02-15T09:32:55;102401.91;;;15.87;60.43
15314;BME280;7757;52.626;4.746;2023-02-15T09:35:44;102404.72;;;15.93;59.49
15314;BME280;7757;52.626;4.746;2023-02-15T09:38:39;102399.31;;;15.93;59.86
15314;BME280;7757;52.626;4.746;2023-02-15T09:41:49;102404.16;;;15.98;59.79
15314;BME280;7757;52.626;4.746;2023-02-15T09:47:23;102391.59;;;15.90;59.75
15314;BME280;7757;52.626;4.746;2023-02-15T09:50:21;102387.94;;;15.98;59.43
15314;BME280;7757;52.626;4.746;2023-02-15T09:53:22;102391.50;;;15.98;59.18
15314;BME280;7757;52.626;4.746;2023-02-15T09:56:16;102389.44;;;16.00;60.09
15314;BME280;7757;52.626;4.746;2023-02-15T09:59:11;102373.44;;;15.99;59.53
15314;BME280;7757;52.626;4.746;2023-02-15T10:02:15;102387.53;;;16.09;59.30
15314;BME280;7757;52.626;4.746;2023-02-15T10:05:15;102392.09;;;16.08;59.57
15314;BME280;7757;52.626;4.746;2023-02-15T10:08:20;102384.84;;;16.09;59.57
15314;BME280;7757;52.626;4.746;2023-02-15T10:11:15;102389.28;;;16.16;58.80
15314;BME280;7757;52.626;4.746;2023-02-15T10:14:35;102385.22;;;16.21;58.57
15314;BME280;7757;52.626;4.746;2023-02-15T10:17:35;102379.63;;;16.22;58.72
15314;BME280;7757;52.626;4.746;2023-02-15T10:20:33;102381.31;;;16.23;59.22
15314;BME280;7757;52.626;4.746;2023-02-15T10:23:38;102386.34;;;16.26;58.71
15314;BME280;7757;52.626;4.746;2023-02-15T10:26:32;102383.44;;;16.28;59.08
15314;BME280;7757;52.626;4.746;2023-02-15T10:29:27;102383.06;;;16.31;58.25
15314;BME280;7757;52.626;4.746;2023-02-15T10:32:21;102371.25;;;16.32;58.86
15314;BME280;7757;52.626;4.746;2023-02-15T10:35:14;102376.91;;;16.37;59.04
15314;BME280;7757;52.626;4.746;2023-02-15T10:38:05;102376.06;;;16.36;58.28
15314;BME280;7757;52.626;4.746;2023-02-15T10:41:06;102355.22;;;16.30;58.26
15314;BME280;7757;52.626;4.746;2023-02-15T10:44:08;102357.28;;;16.28;58.78
15314;BME280;7757;52.626;4.746;2023-02-15T10:47:18;102346.75;;;16.18;58.36
15314;BME280;7757;52.626;4.746;2023-02-15T10:50:21;102350.13;;;16.21;58.65
15314;BME280;7757;52.626;4.746;2023-02-15T10:53:19;102343.69;;;16.22;59.13
15314;BME280;7757;52.626;4.746;2023-02-15T10:56:14;102337.63;;;16.19;58.65
15314;BME280;7757;52.626;4.746;2023-02-15T10:59:22;102350.28;;;16.19;58.25
15314;BME280;7757;52.626;4.746;2023-02-15T11:02:18;102350.84;;;16.14;58.69
15314;BME280;7757;52.626;4.746;2023-02-15T11:05:19;102337.91;;;16.10;58.63
15314;BME280;7757;52.626;4.746;2023-02-15T11:08:09;102334.84;;;16.13;58.67
15314;BME280;7757;52.626;4.746;2023-02-15T11:10:58;102327.56;;;16.13;58.41
15314;BME280;7757;52.626;4.746;2023-02-15T11:13:49;102317.41;;;16.15;58.80
15314;BME280;7757;52.626;4.746;2023-02-15T11:16:41;102330.75;;;16.17;58.58
15314;BME280;7757;52.626;4.746;2023-02-15T11:19:31;102325.81;;;16.21;58.36
15314;BME280;7757;52.626;4.746;2023-02-15T11:22:17;102327.69;;;16.20;58.50
15314;BME280;7757;52.626;4.746;2023-02-15T11:25:16;102333.09;;;16.20;59.06
15314;BME280;7757;52.626;4.746;2023-02-15T11:28:04;102328.06;;;16.17;58.62
15314;BME280;7757;52.626;4.746;2023-02-15T11:30:54;102318.84;;;16.11;58.57
15314;BME280;7757;52.626;4.746;2023-02-15T11:33:45;102321.53;;;16.11;58.39
15314;BME280;7757;52.626;4.746;2023-02-15T11:36:33;102326.00;;;16.04;59.13
15314;BME280;7757;52.626;4.746;2023-02-15T11:39:21;102325.63;;;16.07;59.41
15314;BME280;7757;52.626;4.746;2023-02-15T11:42:11;102323.56;;;16.09;60.75
15314;BME280;7757;52.626;4.746;2023-02-15T11:45:02;102326.94;;;16.11;59.72
15314;BME280;7757;52.626;4.746;2023-02-15T11:47:49;102320.06;;;16.09;59.86
15314;BME280;7757;52.626;4.746;2023-02-15T11:50:36;102310.44;;;16.06;59.41
15314;BME280;7757;52.626;4.746;2023-02-15T11:53:22;102305.88;;;16.07;60.23
15314;BME280;7757;52.626;4.746;2023-02-15T11:56:13;102289.31;;;15.95;59.69
15314;BME280;7757;52.626;4.746;2023-02-15T11:59:03;102293.59;;;16.04;60.06
15314;BME280;7757;52.626;4.746;2023-02-15T12:02:16;102266.81;;;15.88;60.85
15314;BME280;7757;52.626;4.746;2023-02-15T12:05:24;102283.91;;;16.10;61.27
15314;BME280;7757;52.626;4.746;2023-02-15T12:08:16;102276.09;;;16.15;61.20
15314;BME280;7757;52.626;4.746;2023-02-15T12:11:06;102289.59;;;16.15;61.21
15314;BME280;7757;52.626;4.746;2023-02-15T12:13:57;102289.97;;;16.12;60.63
15314;BME280;7757;52.626;4.746;2023-02-15T12:16:45;102300.38;;;16.15;60.52
15314;BME280;7757;52.626;4.746;2023-02-15T12:19:36;102294.63;;;16.18;60.63
15314;BME280;7757;52.626;4.746;2023-02-15T12:22:25;102290.91;;;16.19;60.96
15314;BME280;7757;52.626;4.746;2023-02-15T12:25:21;102272.38;;;16.16;60.02
15314;BME280;7757;52.626;4.746;2023-02-15T12:28:22;102291.38;;;16.23;60.16
15314;BME280;7757;52.626;4.746;2023-02-15T12:31:20;102281.03;;;16.26;60.27
15314;BME280;7757;52.626;4.746;2023-02-15T12:34:11;102294.72;;;16.25;60.13
15314;BME280;7757;52.626;4.746;2023-02-15T12:37:00;102275.44;;;16.28;60.17
15314;BME280;7757;52.626;4.746;2023-02-15T12:39:53;102276.47;;;16.27;59.89
15314;BME280;7757;52.626;4.746;2023-02-15T12:42:44;102281.31;;;16.31;60.19
15314;BME280;7757;52.626;4.746;2023-02-15T12:45:31;102278.78;;;16.30;59.98
15314;BME280;7757;52.626;4.746;2023-02-15T12:48:19;102281.31;;;16.31;59.51
15314;BME280;7757;52.626;4.746;2023-02-15T12:51:07;102272.56;;;16.29;59.85
15314;BME280;7757;52.626;4.746;2023-02-15T12:53:53;102272.75;;;16.28;60.00
15314;BME280;7757;52.626;4.746;2023-02-15T12:56:39;102276.06;;;16.30;60.39
15314;BME280;7757;52.626;4.746;2023-02-15T12:59:26;102272.75;;;16.28;59.71
15314;BME280;7757;52.626;4.746;2023-02-15T13:02:20;102267.34;;;16.28;60.55
15314;BME280;7757;52.626;4.746;2023-02-15T13:05:17;102253.84;;;16.28;60.20
15314;BME280;7757;52.626;4.746;2023-02-15T13:08:10;102249.66;;;16.25;60.63
15314;BME280;7757;52.626;4.746;2023-02-15T13:10:59;102250.97;;;16.29;60.23
15314;BME280;7757;52.626;4.746;2023-02-15T13:13:51;102244.25;;;16.25;60.02
15314;BME280;7757;52.626;4.746;2023-02-15T13:16:39;102252.81;;;16.29;60.70
15314;BME280;7757;52.626;4.746;2023-02-15T13:19:29;102247.22;;;16.30;59.99
15314;BME280;7757;52.626;4.746;2023-02-15T13:22:20;102242.88;;;16.29;60.43
15314;BME280;7757;52.626;4.746;2023-02-15T13:25:12;102238.88;;;16.25;60.52
15314;BME280;7757;52.626;4.746;2023-02-15T13:28:01;102244.72;;;16.29;59.72
15314;BME280;7757;52.626;4.746;2023-02-15T13:30:47;102237.47;;;16.29;60.01
15314;BME280;7757;52.626;4.746;2023-02-15T13:33:36;102229.53;;;16.28;60.20
15314;BME280;7757;52.626;4.746;2023-02-15T13:36:27;102221.44;;;16.28;60.32
15314;BME280;7757;52.626;4.746;2023-02-15T13:39:23;102221.69;;;16.33;60.26
15314;BME280;7757;52.626;4.746;2023-02-15T13:42:18;102224.41;;;16.33;59.92
15314;BME280;7757;52.626;4.746;2023-02-15T13:45:20;102221.69;;;16.33;59.50
15314;BME280;7757;52.626;4.746;2023-02-15T13:48:16;102216.13;;;16.34;59.83
15314;BME280;7757;52.626;4.746;2023-02-15T13:51:13;102202.53;;;16.28;60.28
15314;BME280;7757;52.626;4.746;2023-02-15T13:54:18;102205.50;;;16.33;59.81
15314;BME280;7757;52.626;4.746;2023-02-15T13:57:20;102200.31;;;16.31;60.71
15314;BME280;7757;52.626;4.746;2023-02-15T14:00:16;102203.00;;;16.31;60.35
15314;BME280;7757;52.626;4.746;2023-02-15T14:03:39;102198.38;;;16.25;60.45
15314;BME280;7757;52.626;4.746;2023-02-15T14:06:47;102200.69;;;16.28;59.83
15314;BME280;7757;52.626;4.746;2023-02-15T14:09:43;102203.75;;;16.25;60.49
15314;BME280;7757;52.626;4.746;2023-02-15T14:12:41;102206.84;;;16.22;60.47
15314;BME280;7757;52.626;4.746;2023-02-15T14:15:35;102210.38;;;16.23;60.21
15314;BME280;7757;52.626;4.746;2023-02-15T14:18:31;102206.59;;;16.17;60.32
15314;BME280;7757;52.626;4.746;2023-02-15T14:21:23;102204.91;;;16.16;60.72
15314;BME280;7757;52.626;4.746;2023-02-15T14:24:26;102208.06;;;16.19;60.47
15314;BME280;7757;52.626;4.746;2023-02-15T14:27:20;102202.84;;;16.18;60.34
15314;BME280;7757;52.626;4.746;2023-02-15T14:30:15;102195.59;;;16.18;60.88
15314;BME280;7757;52.626;4.746;2023-02-15T14:33:04;102192.88;;;16.18;60.48
15314;BME280;7757;52.626;4.746;2023-02-15T14:35:51;102189.16;;;16.19;60.36
15314;BME280;7757;52.626;4.746;2023-02-15T14:38:51;102190.38;;;16.17;60.11
15314;BME280;7757;52.626;4.746;2023-02-15T14:41:47;102181.19;;;16.11;60.31
15314;BME280;7757;52.626;4.746;2023-02-15T14:44:38;102180.53;;;16.09;60.25
15314;BME280;7757;52.626;4.746;2023-02-15T14:47:27;102191.41;;;16.16;60.83
15314;BME280;7757;52.626;4.746;2023-02-15T14:50:39;102183.50;;;16.14;60.47
15314;BME280;7757;52.626;4.746;2023-02-15T14:53:36;102167.44;;;16.28;60.83
15314;BME280;7757;52.626;4.746;2023-02-15T14:56:25;102173.56;;;16.36;60.86
15314;BME280;7757;52.626;4.746;2023-02-15T14:59:20;102171.25;;;16.33;61.38
15314;BME280;7757;52.626;4.746;2023-02-15T15:02:13;102163.47;;;16.24;61.05
15314;BME280;7757;52.626;4.746;2023-02-15T15:05:08;102168.50;;;16.27;61.42
15314;BME280;7757;52.626;4.746;2023-02-15T15:07:57;102172.22;;;16.26;61.52
15314;BME280;7757;52.626;4.746;2023-02-15T15:10:44;102166.59;;;16.27;61.29